createdAt,value
2019-02-03T00:01:32.495Z,91.56
2019-02-03T00:04:01.036Z,91.59
2019-02-03T00:06:29.576Z,91.71
2019-02-03T00:08:58.451Z,91.68
2019-02-03T00:11:26.937Z,91.87
2019-02-03T00:13:55.424Z,91.91
2019-02-03T00:16:23.917Z,91.82
2019-02-03T00:18:52.388Z,91.99
2019-02-03T00:21:20.857Z,91.96
2019-02-03T00:23:49.623Z,92.05
2019-02-03T00:26:19.296Z,91.88
2019-02-03T00:28:47.807Z,91.90
2019-02-03T00:31:16.308Z,91.98
2019-02-03T00:33:44.771Z,91.99
2019-02-03T00:36:13.246Z,91.95
2019-02-03T00:38:41.831Z,91.99
2019-02-03T00:41:10.330Z,91.96
2019-02-03T00:43:38.803Z,92.09
2019-02-03T00:46:07.292Z,92.19
2019-02-03T00:48:35.769Z,92.24
2019-02-03T00:51:04.775Z,92.23
2019-02-03T00:53:33.273Z,92.37
2019-02-03T00:56:01.810Z,92.40
2019-02-03T00:58:30.269Z,92.37
2019-02-03T01:00:58.771Z,92.44
2019-02-03T01:03:27.316Z,92.44
2019-02-03T01:05:55.855Z,92.49
2019-02-03T01:08:24.358Z,92.49
2019-02-03T01:10:52.908Z,92.49
2019-02-03T01:13:21.371Z,92.51
2019-02-03T01:15:49.883Z,92.57
2019-02-03T01:18:18.348Z,92.66
2019-02-03T01:20:46.995Z,92.72
2019-02-03T01:23:15.491Z,92.81
2019-02-03T01:25:43.974Z,92.76
2019-02-03T01:28:12.855Z,92.64
2019-02-03T01:30:41.349Z,92.38
2019-02-03T01:33:09.812Z,92.38
2019-02-03T01:35:38.456Z,92.39
2019-02-03T01:38:07.008Z,92.42
2019-02-03T01:40:35.479Z,92.47
2019-02-03T01:43:03.949Z,92.35
2019-02-03T01:45:32.460Z,92.34
2019-02-03T01:48:00.918Z,92.33
2019-02-03T01:50:29.387Z,92.27
2019-02-03T01:52:57.907Z,92.27
2019-02-03T01:55:27.104Z,92.17
2019-02-03T01:57:55.654Z,92.24
2019-02-03T02:00:26.769Z,92.28
2019-02-03T02:02:55.692Z,92.17
2019-02-03T02:05:24.237Z,92.06
2019-02-03T02:07:52.742Z,92.02
2019-02-03T02:10:26.397Z,92.04
2019-02-03T02:12:54.948Z,91.96
2019-02-03T02:15:23.520Z,91.94
2019-02-03T02:17:52.426Z,91.83
2019-02-03T02:20:23.481Z,91.69
2019-02-03T02:22:52.045Z,91.58
2019-02-03T02:25:20.572Z,91.69
2019-02-03T02:27:49.118Z,91.72
2019-02-03T02:30:22.065Z,91.80
2019-02-03T02:32:50.615Z,92.01
2019-02-03T02:35:19.130Z,92.16
2019-02-03T02:37:47.720Z,92.24
2019-02-03T02:40:21.242Z,92.37
2019-02-03T02:42:49.695Z,92.33
2019-02-03T02:45:18.342Z,92.43
2019-02-03T02:47:47.008Z,92.32
2019-02-03T02:50:18.650Z,92.37
2019-02-03T02:52:47.160Z,92.38
2019-02-03T02:55:15.700Z,92.43
2019-02-03T02:57:44.234Z,92.35
2019-02-03T03:00:17.389Z,92.32
2019-02-03T03:02:46.376Z,92.24
2019-02-03T03:05:15.171Z,92.22
2019-02-03T03:07:43.745Z,92.28
2019-02-03T03:10:14.851Z,92.23
2019-02-03T03:12:43.398Z,92.35
2019-02-03T03:15:14.525Z,92.27
2019-02-03T03:17:42.979Z,92.21
2019-02-03T03:20:14.098Z,92.27
2019-02-03T03:22:42.676Z,92.33
2019-02-03T03:25:14.147Z,92.34
2019-02-03T03:27:42.597Z,92.29
2019-02-03T03:30:16.764Z,92.23
2019-02-03T03:32:45.519Z,92.18
2019-02-03T03:35:14.061Z,92.08
2019-02-03T03:37:43.455Z,92.06
2019-02-03T03:40:18.488Z,91.97
2019-02-03T03:42:47.007Z,92.01
2019-02-03T03:45:15.779Z,91.92
2019-02-03T03:47:44.252Z,91.89
2019-02-03T03:50:14.344Z,91.97
2019-02-03T03:52:42.849Z,91.99
2019-02-03T03:55:11.487Z,91.98
2019-02-03T03:57:39.901Z,92.00
2019-02-03T04:00:19.905Z,91.95
2019-02-03T04:02:48.736Z,91.94
2019-02-03T04:05:17.286Z,91.99
2019-02-03T04:07:45.836Z,91.92
2019-02-03T04:10:19.224Z,91.91
2019-02-03T04:12:47.682Z,91.83
2019-02-03T04:15:17.917Z,91.73
2019-02-03T04:17:46.399Z,91.70
2019-02-03T04:20:20.214Z,91.63
2019-02-03T04:22:48.709Z,91.64
2019-02-03T04:25:17.177Z,91.53
2019-02-03T04:27:45.699Z,91.52
2019-02-03T04:30:17.584Z,91.53
2019-02-03T04:32:46.034Z,91.44
2019-02-03T04:35:15.554Z,91.35
2019-02-03T04:37:44.038Z,91.32
2019-02-03T04:40:14.951Z,91.12
2019-02-03T04:42:43.425Z,91.02
2019-02-03T04:45:14.149Z,90.95
2019-02-03T04:47:42.599Z,90.71
2019-02-03T04:50:13.757Z,90.58
2019-02-03T04:52:42.282Z,90.50
2019-02-03T04:55:13.492Z,90.38
2019-02-03T04:57:41.973Z,90.36
2019-02-03T05:00:22.176Z,90.35
2019-02-03T05:02:50.627Z,90.18
2019-02-03T05:05:19.095Z,90.24
2019-02-03T05:07:47.672Z,90.14
2019-02-03T05:10:16.467Z,90.10
2019-02-03T05:12:44.929Z,90.15
2019-02-03T05:15:15.971Z,90.08
2019-02-03T05:17:44.431Z,90.00
2019-02-03T05:20:18.017Z,90.00
2019-02-03T05:22:47.168Z,89.96
2019-02-03T05:25:15.699Z,89.82
2019-02-03T05:27:44.155Z,89.81
2019-02-03T05:30:21.575Z,89.73
2019-02-03T05:32:50.029Z,89.74
2019-02-03T05:35:18.959Z,89.75
2019-02-03T05:37:47.584Z,89.86
2019-02-03T05:40:16.773Z,89.79
2019-02-03T05:42:45.302Z,89.92
2019-02-03T05:45:18.773Z,89.92
2019-02-03T05:47:50.117Z,89.41
2019-02-03T05:50:19.564Z,89.67
2019-02-03T05:52:48.083Z,89.67
2019-02-03T05:55:18.427Z,89.79
2019-02-03T05:57:46.882Z,89.79
2019-02-03T06:00:30.785Z,90.00
2019-02-03T06:02:59.249Z,90.00
2019-02-03T06:05:27.695Z,89.35
2019-02-03T06:07:56.251Z,89.35
2019-02-03T06:10:24.840Z,89.70
2019-02-03T06:12:53.758Z,89.71
2019-02-03T06:15:22.389Z,89.69
2019-02-03T06:17:50.840Z,89.40
2019-02-03T06:20:20.906Z,89.40
2019-02-03T06:22:49.501Z,89.59
2019-02-03T06:25:18.127Z,89.62
2019-02-03T06:27:46.583Z,89.74
2019-02-03T06:30:27.460Z,89.73
2019-02-03T06:32:55.910Z,89.75
2019-02-03T06:35:24.375Z,89.57
2019-02-03T06:37:52.962Z,90.19
2019-02-03T06:40:21.932Z,90.06
2019-02-03T06:42:50.396Z,90.06
2019-02-03T06:45:35.771Z,89.59
2019-02-03T06:48:04.225Z,89.53
2019-02-03T06:50:32.692Z,89.49
2019-02-03T06:53:01.223Z,89.81
2019-02-03T06:55:29.696Z,89.81
2019-02-03T06:57:58.154Z,89.35
2019-02-03T07:00:26.660Z,89.15
2019-02-03T07:02:55.128Z,89.21
2019-02-03T07:05:23.588Z,89.18
2019-02-03T07:07:52.088Z,89.31
2019-02-03T07:10:20.548Z,89.41
2019-02-03T07:12:48.997Z,89.44
2019-02-03T07:15:17.556Z,89.38
2019-02-03T07:17:46.014Z,89.41
2019-02-03T07:20:16.126Z,89.31
2019-02-03T07:22:44.671Z,89.32
2019-02-03T07:25:13.272Z,89.16
2019-02-03T07:27:41.903Z,89.08
2019-02-03T07:30:19.068Z,89.03
2019-02-03T07:32:47.559Z,89.05
2019-02-03T07:35:16.138Z,89.12
2019-02-03T07:37:44.644Z,89.20
2019-02-03T07:40:21.881Z,89.14
2019-02-03T07:42:50.748Z,89.19
2019-02-03T07:45:19.219Z,89.15
2019-02-03T07:47:47.700Z,89.17
2019-02-03T07:50:17.194Z,89.14
2019-02-03T07:52:45.655Z,88.97
2019-02-03T07:55:14.957Z,88.76
2019-02-03T07:57:43.469Z,88.76
2019-02-03T08:00:16.541Z,88.65
2019-02-03T08:02:44.995Z,88.61
2019-02-03T08:05:13.581Z,88.51
2019-02-03T08:07:42.147Z,88.54
2019-02-03T08:10:24.625Z,88.55
2019-02-03T08:12:44.030Z,88.50
2019-02-03T08:15:17.452Z,88.64
2019-02-03T08:17:45.907Z,88.63
2019-02-03T08:20:26.473Z,88.59
2019-02-03T08:22:55.019Z,88.63
2019-02-03T08:25:23.541Z,88.41
2019-02-03T08:27:52.113Z,88.20
2019-02-03T08:30:23.739Z,88.03
2019-02-03T08:32:52.184Z,88.15
2019-02-03T08:35:20.699Z,88.23
2019-02-03T08:37:49.174Z,88.17
2019-02-03T08:40:22.509Z,88.32
2019-02-03T08:42:51.092Z,88.18
2019-02-03T08:45:24.771Z,88.18
2019-02-03T08:47:53.397Z,87.62
2019-02-03T08:50:23.148Z,87.62
2019-02-03T08:52:51.635Z,87.60
2019-02-03T08:55:20.128Z,87.48
2019-02-03T08:57:48.619Z,87.31
2019-02-03T09:00:25.627Z,87.06
2019-02-03T09:02:54.145Z,86.86
2019-02-03T09:05:22.615Z,86.81
2019-02-03T09:07:51.234Z,86.45
2019-02-03T09:10:24.042Z,87.01
2019-02-03T09:12:52.497Z,87.01
2019-02-03T09:15:28.254Z,86.69
2019-02-03T09:17:56.949Z,86.59
2019-02-03T09:20:28.005Z,86.59
2019-02-03T09:22:56.532Z,85.90
2019-02-03T09:25:25.080Z,85.90
2019-02-03T09:27:53.617Z,86.09
2019-02-03T09:30:33.734Z,86.10
2019-02-03T09:33:02.189Z,85.48
2019-02-03T09:35:30.633Z,85.89
2019-02-03T09:37:59.190Z,85.89
2019-02-03T09:40:30.258Z,85.66
2019-02-03T09:42:58.805Z,85.66
2019-02-03T09:45:27.848Z,85.27
2019-02-03T09:47:56.937Z,84.99
2019-02-03T09:50:31.706Z,85.36
2019-02-03T09:53:01.652Z,85.36
2019-02-03T09:55:32.056Z,84.65
2019-02-03T09:58:01.208Z,84.23
2019-02-03T10:00:35.233Z,84.29
2019-02-03T10:03:04.835Z,84.86
2019-02-03T10:05:33.342Z,84.86
2019-02-03T10:08:01.822Z,84.68
2019-02-03T10:10:34.994Z,84.49
2019-02-03T10:13:03.656Z,84.49
2019-02-03T10:15:32.205Z,84.67
2019-02-03T10:18:00.658Z,84.20
2019-02-03T10:20:30.190Z,84.20
2019-02-03T10:22:58.662Z,83.93
2019-02-03T10:25:28.865Z,84.31
2019-02-03T10:27:57.363Z,84.90
2019-02-03T10:30:26.540Z,84.90
2019-02-03T10:32:55.436Z,83.66
2019-02-03T10:35:26.179Z,83.66
2019-02-03T10:37:54.867Z,84.12
2019-02-03T10:40:31.843Z,84.12
2019-02-03T10:43:01.055Z,83.96
2019-02-03T10:45:31.131Z,83.71
2019-02-03T10:47:59.619Z,83.81
2019-02-03T10:50:37.479Z,83.81
2019-02-03T10:53:08.431Z,83.26
2019-02-03T10:55:36.893Z,83.26
2019-02-03T10:58:05.990Z,83.41
2019-02-03T11:00:37.171Z,83.30
2019-02-03T11:03:05.957Z,82.90
2019-02-03T11:05:40.094Z,82.90
2019-02-03T11:08:10.225Z,83.00
2019-02-03T11:10:38.672Z,82.48
2019-02-03T11:13:07.141Z,81.96
2019-02-03T11:15:35.622Z,81.96
2019-02-03T11:18:04.144Z,82.31
2019-02-03T11:20:33.839Z,82.42
2019-02-03T11:23:02.442Z,82.42
2019-02-03T11:25:32.233Z,82.72
2019-02-03T11:28:00.756Z,82.72
2019-02-03T11:30:30.697Z,82.80
2019-02-03T11:33:05.831Z,82.92
2019-02-03T11:35:31.803Z,82.92
2019-02-03T11:38:00.381Z,83.18
2019-02-03T11:40:34.346Z,83.43
2019-02-03T11:43:02.931Z,82.69
2019-02-03T11:45:39.310Z,82.69
2019-02-03T11:48:10.996Z,82.69
2019-02-03T11:50:41.703Z,82.50
2019-02-03T11:53:15.183Z,82.50
2019-02-03T11:55:43.656Z,82.55
2019-02-03T11:58:12.568Z,82.48
2019-02-03T12:00:41.271Z,82.52
2019-02-03T12:03:10.054Z,82.52
2019-02-03T12:05:38.882Z,82.61
2019-02-03T12:08:08.617Z,82.43
2019-02-03T12:10:37.154Z,82.43
2019-02-03T12:13:06.648Z,82.37
2019-02-03T12:15:35.752Z,82.29
2019-02-03T12:18:04.887Z,82.36
2019-02-03T12:20:33.326Z,81.93
2019-02-03T12:23:01.829Z,81.21
2019-02-03T12:25:41.635Z,81.21
2019-02-03T12:28:10.263Z,81.34
2019-02-03T12:30:38.780Z,80.83
2019-02-03T12:33:07.895Z,80.62
2019-02-03T12:35:36.954Z,80.27
2019-02-03T12:38:06.248Z,80.64
2019-02-03T12:40:39.146Z,80.64
2019-02-03T12:43:07.706Z,80.76
2019-02-03T12:45:36.401Z,80.52
2019-02-03T12:48:06.395Z,80.29
2019-02-03T12:50:34.875Z,80.03
2019-02-03T12:53:03.338Z,80.40
2019-02-03T12:55:32.549Z,80.50
2019-02-03T12:58:01.029Z,80.45
2019-02-03T13:00:35.195Z,80.45
2019-02-03T13:03:04.278Z,80.57
2019-02-03T13:05:32.780Z,80.57
2019-02-03T13:08:01.714Z,80.61
2019-02-03T13:10:40.266Z,80.99
2019-02-03T13:13:09.461Z,80.89
2019-02-03T13:15:46.806Z,81.09
2019-02-03T13:18:15.273Z,81.21
2019-02-03T13:20:43.895Z,81.84
2019-02-03T13:23:12.544Z,81.66
2019-02-03T13:25:41.188Z,81.83
2019-02-03T13:28:09.651Z,81.83
2019-02-03T13:30:40.930Z,81.49
2019-02-03T13:33:10.527Z,81.72
2019-02-03T13:35:38.977Z,81.88
2019-02-03T13:38:07.679Z,81.57
2019-02-03T13:40:36.137Z,81.35
2019-02-03T13:43:04.944Z,81.35
2019-02-03T13:45:33.440Z,81.20
2019-02-03T13:48:01.956Z,81.10
2019-02-03T13:50:30.586Z,81.10
2019-02-03T13:52:59.164Z,81.49
2019-02-03T13:55:28.097Z,81.52
2019-02-03T13:57:57.238Z,81.52
2019-02-03T14:00:34.491Z,81.48
2019-02-03T14:03:02.949Z,81.16
2019-02-03T14:05:31.432Z,81.88
2019-02-03T14:07:59.913Z,81.88
2019-02-03T14:10:33.787Z,81.64
2019-02-03T14:13:02.485Z,81.63
2019-02-03T14:15:31.046Z,81.77
2019-02-03T14:17:59.564Z,82.10
2019-02-03T14:20:30.531Z,82.10
2019-02-03T14:22:59.351Z,81.80
2019-02-03T14:25:28.252Z,81.75
2019-02-03T14:27:56.732Z,81.72
2019-02-03T14:30:40.519Z,81.75
2019-02-03T14:33:05.050Z,81.83
2019-02-03T14:35:34.195Z,81.91
2019-02-03T14:38:03.393Z,81.94
2019-02-03T14:40:31.861Z,82.37
2019-02-03T14:43:02.211Z,82.37
2019-02-03T14:45:30.679Z,82.51
2019-02-03T14:47:59.148Z,81.92
2019-02-03T14:50:27.776Z,81.92
2019-02-03T14:53:02.587Z,82.54
2019-02-03T14:55:33.939Z,82.54
2019-02-03T14:58:02.405Z,82.34
2019-02-03T15:00:33.975Z,82.34
2019-02-03T15:03:04.088Z,82.37
2019-02-03T15:05:32.549Z,82.37
2019-02-03T15:08:01.115Z,82.98
2019-02-03T15:10:30.367Z,82.81
2019-02-03T15:12:59.175Z,82.81
2019-02-03T15:15:29.393Z,83.04
2019-02-03T15:17:58.226Z,83.04
2019-02-03T15:20:28.330Z,83.00
2019-02-03T15:22:56.887Z,83.03
2019-02-03T15:25:25.409Z,83.05
2019-02-03T15:27:54.055Z,83.10
2019-02-03T15:30:37.680Z,83.04
2019-02-03T15:33:06.213Z,82.68
2019-02-03T15:35:34.668Z,82.68
2019-02-03T15:38:03.163Z,82.90
2019-02-03T15:40:31.708Z,82.96
2019-02-03T15:43:00.535Z,82.24
2019-02-03T15:45:29.103Z,82.24
2019-02-03T15:47:57.568Z,82.51
2019-02-03T15:50:27.756Z,82.44
2019-02-03T15:52:56.380Z,82.18
2019-02-03T15:55:27.083Z,81.76
2019-02-03T15:57:55.612Z,82.07
2019-02-03T16:00:30.094Z,82.07
2019-02-03T16:02:59.679Z,82.01
2019-02-03T16:05:28.145Z,81.61
2019-02-03T16:07:56.701Z,81.61
2019-02-03T16:10:28.133Z,81.76
2019-02-03T16:12:56.581Z,81.79
2019-02-03T16:15:25.132Z,81.87
2019-02-03T16:17:53.718Z,82.24
2019-02-03T16:20:30.155Z,82.24
2019-02-03T16:23:00.330Z,82.07
2019-02-03T16:25:29.138Z,82.07
2019-02-03T16:27:57.698Z,82.10
2019-02-03T16:30:29.355Z,82.10
2019-02-03T16:32:58.173Z,81.88
2019-02-03T16:35:26.663Z,81.98
2019-02-03T16:37:55.190Z,82.11
2019-02-03T16:40:25.989Z,82.25
2019-02-03T16:42:54.490Z,82.38
2019-02-03T16:45:23.079Z,82.45
2019-02-03T16:47:52.085Z,82.45
2019-02-03T16:50:29.403Z,82.39
2019-02-03T16:52:59.100Z,82.42
2019-02-03T16:55:27.721Z,82.49
2019-02-03T16:57:56.192Z,82.48
2019-02-03T17:00:27.721Z,82.79
2019-02-03T17:02:56.172Z,82.81
2019-02-03T17:05:30.499Z,82.66
2019-02-03T17:08:00.729Z,82.74
2019-02-03T17:10:29.382Z,82.60
2019-02-03T17:12:57.887Z,82.89
2019-02-03T17:15:35.018Z,82.79
2019-02-03T17:18:03.631Z,82.75
2019-02-03T17:20:32.330Z,82.71
2019-02-03T17:23:00.784Z,82.69
2019-02-03T17:25:35.236Z,82.71
2019-02-03T17:28:03.771Z,82.69
2019-02-03T17:30:35.416Z,82.72
2019-02-03T17:33:05.538Z,82.44
2019-02-03T17:35:34.355Z,82.44
2019-02-03T17:38:02.821Z,82.67
2019-02-03T17:40:31.585Z,82.73
2019-02-03T17:43:00.068Z,82.79
2019-02-03T17:45:28.712Z,82.62
2019-02-03T17:47:57.482Z,82.62
2019-02-03T17:50:28.421Z,83.08
2019-02-03T17:52:56.882Z,83.08
2019-02-03T17:55:25.465Z,83.11
2019-02-03T17:57:53.940Z,83.11
2019-02-03T18:00:44.022Z,82.71
2019-02-03T18:03:12.481Z,82.83
2019-02-03T18:05:41.007Z,82.82
2019-02-03T18:08:10.831Z,82.86
2019-02-03T18:10:39.370Z,82.70
2019-02-03T18:13:08.385Z,82.70
2019-02-03T18:15:37.142Z,83.12
2019-02-03T18:18:07.429Z,83.28
2019-02-03T18:20:36.033Z,83.18
2019-02-03T18:23:05.551Z,83.18
2019-02-03T18:25:34.009Z,83.50
2019-02-03T18:28:02.621Z,83.52
2019-02-03T18:30:32.853Z,84.10
2019-02-03T18:33:01.639Z,84.10
2019-02-03T18:35:30.119Z,83.68
2019-02-03T18:38:04.541Z,83.56
2019-02-03T18:40:32.995Z,83.53
2019-02-03T18:43:02.086Z,83.45
2019-02-03T18:45:30.906Z,83.49
2019-02-03T18:47:59.443Z,83.47
2019-02-03T18:50:27.911Z,83.47
2019-02-03T18:52:56.405Z,83.36
2019-02-03T18:55:33.607Z,83.38
2019-02-03T18:58:02.130Z,83.38
2019-02-03T19:00:33.126Z,83.07
2019-02-03T19:03:01.663Z,83.15
2019-02-03T19:05:32.876Z,83.64
2019-02-03T19:08:01.400Z,83.64
2019-02-03T19:10:32.672Z,83.46
2019-02-03T19:13:00.302Z,83.46
2019-02-03T19:15:31.394Z,82.88
2019-02-03T19:18:00.229Z,82.84
2019-02-03T19:20:37.739Z,82.93
2019-02-03T19:23:07.627Z,82.77
2019-02-03T19:25:36.181Z,82.42
2019-02-03T19:28:05.013Z,82.42
2019-02-03T19:30:33.843Z,82.80
2019-02-03T19:33:02.295Z,82.80
2019-02-03T19:35:32.206Z,82.23
2019-02-03T19:38:00.662Z,82.14
2019-02-03T19:40:33.320Z,82.01
2019-02-03T19:43:01.814Z,81.93
2019-02-03T19:45:31.616Z,81.93
2019-02-03T19:48:00.372Z,82.03
2019-02-03T19:50:30.925Z,82.14
2019-02-03T19:52:59.447Z,82.13
2019-02-03T19:55:28.051Z,82.07
2019-02-03T19:57:56.516Z,82.00
2019-02-03T20:00:30.599Z,82.02
2019-02-03T20:02:59.127Z,82.15
2019-02-03T20:05:27.687Z,82.25
2019-02-03T20:07:56.146Z,82.44
2019-02-03T20:10:29.496Z,82.56
2019-02-03T20:12:58.364Z,82.60
2019-02-03T20:15:26.885Z,82.66
2019-02-03T20:17:57.947Z,82.65
2019-02-03T20:20:31.023Z,82.58
2019-02-03T20:22:59.475Z,82.58
2019-02-03T20:25:28.261Z,82.59
2019-02-03T20:27:56.733Z,82.67
2019-02-03T20:30:38.164Z,82.79
2019-02-03T20:32:57.057Z,82.95
2019-02-03T20:35:27.982Z,83.10
2019-02-03T20:37:56.434Z,83.23
2019-02-03T20:40:33.758Z,83.24
2019-02-03T20:43:02.212Z,83.35
2019-02-03T20:45:31.335Z,83.54
2019-02-03T20:47:59.986Z,83.68
2019-02-03T20:50:28.494Z,83.77
2019-02-03T20:52:57.382Z,83.83
2019-02-03T20:55:25.948Z,83.93
2019-02-03T20:57:54.463Z,84.08
2019-02-03T21:00:28.625Z,84.17
2019-02-03T21:02:57.113Z,84.16
2019-02-03T21:05:25.723Z,84.20
2019-02-03T21:07:54.239Z,84.13
2019-02-03T21:10:24.081Z,84.22
2019-02-03T21:12:52.529Z,84.27
2019-02-03T21:15:33.128Z,84.28
2019-02-03T21:17:56.663Z,84.32
2019-02-03T21:20:34.251Z,84.38
2019-02-03T21:23:02.761Z,84.40
2019-02-03T21:25:31.838Z,84.45
2019-02-03T21:28:00.291Z,84.53
2019-02-03T21:30:34.329Z,84.57
2019-02-03T21:33:03.127Z,84.67
2019-02-03T21:35:31.574Z,84.71
2019-02-03T21:38:00.122Z,84.70
2019-02-03T21:40:30.310Z,84.77
2019-02-03T21:42:58.932Z,84.79
2019-02-03T21:45:27.570Z,84.81
2019-02-03T21:47:56.020Z,84.88
2019-02-03T21:50:29.848Z,84.91
2019-02-03T21:52:58.441Z,84.86
2019-02-03T21:55:27.056Z,84.92
2019-02-03T21:57:55.880Z,84.94
2019-02-03T22:00:32.076Z,84.97
2019-02-03T22:03:00.672Z,84.94
2019-02-03T22:05:29.962Z,84.98
2019-02-03T22:07:58.542Z,84.95
2019-02-03T22:10:35.214Z,84.86
2019-02-03T22:13:04.142Z,84.90
2019-02-03T22:15:32.682Z,85.00
2019-02-03T22:18:01.197Z,85.00
2019-02-03T22:20:29.757Z,85.00
2019-02-03T22:22:58.204Z,85.16
2019-02-03T22:25:26.658Z,85.32
2019-02-03T22:27:55.215Z,85.47
2019-02-03T22:30:26.843Z,85.67
2019-02-03T22:32:55.459Z,85.67
2019-02-03T22:35:24.033Z,85.82
2019-02-03T22:37:52.642Z,85.89
2019-02-03T22:40:21.697Z,86.17
2019-02-03T22:42:50.204Z,86.25
2019-02-03T22:45:22.901Z,86.37
2019-02-03T22:47:51.442Z,86.47
2019-02-03T22:50:27.896Z,86.54
2019-02-03T22:52:57.039Z,86.56
2019-02-03T22:55:25.506Z,86.59
2019-02-03T22:57:54.086Z,86.62
2019-02-03T23:00:27.449Z,86.60
2019-02-03T23:02:55.989Z,86.72
2019-02-03T23:05:24.601Z,86.92
2019-02-03T23:07:53.059Z,87.14
2019-02-03T23:10:21.523Z,87.37
2019-02-03T23:12:50.174Z,87.50
2019-02-03T23:15:19.474Z,87.53
2019-02-03T23:17:47.941Z,87.55
2019-02-03T23:20:16.511Z,87.48
2019-02-03T23:22:44.979Z,87.60
2019-02-03T23:25:13.520Z,87.25
2019-02-03T23:27:42.021Z,87.31
2019-02-03T23:30:13.875Z,87.26
2019-02-03T23:32:42.563Z,87.18
2019-02-03T23:35:11.106Z,87.26
2019-02-03T23:37:39.641Z,87.38
2019-02-03T23:40:13.206Z,87.29
2019-02-03T23:42:41.790Z,87.41
2019-02-03T23:45:12.840Z,87.47
2019-02-03T23:47:41.375Z,87.57
2019-02-03T23:50:20.711Z,87.59
2019-02-03T23:52:49.249Z,87.61
2019-02-03T23:55:17.862Z,87.61
2019-02-03T23:57:46.445Z,87.64
